sensor_id;sensor_type;location;lat;lon;timestamp;P1;durP1;ratioP1;P2;durP2;ratioP2
4738;SDS011;2383;48.632;10.156;2022-09-21T00:02:33;5.17;;;3.13;;
4738;SDS011;2383;48.632;10.156;2022-09-21T00:06:35;5.07;;;3.00;;
4738;SDS011;2383;48.632;10.156;2022-09-21T00:10:37;6.20;;;2.50;;
4738;SDS011;2383;48.632;10.156;2022-09-21T00:14:39;5.63;;;2.90;;
4738;SDS011;2383;48.632;10.156;2022-09-21T00:18:43;4.43;;;2.63;;
4738;SDS011;2383;48.632;10.156;2022-09-21T00:22:45;5.10;;;3.07;;
4738;SDS011;2383;48.632;10.156;2022-09-21T00:26:48;4.70;;;3.27;;
4738;SDS011;2383;48.632;10.156;2022-09-21T00:30:49;6.07;;;4.03;;
4738;SDS011;2383;48.632;10.156;2022-09-21T00:34:52;8.77;;;4.17;;
4738;SDS011;2383;48.632;10.156;2022-09-21T00:38:54;6.30;;;3.83;;
4738;SDS011;2383;48.632;10.156;2022-09-21T00:43:14;6.43;;;3.57;;
4738;SDS011;2383;48.632;10.156;2022-09-21T00:47:29;5.33;;;3.73;;
4738;SDS011;2383;48.632;10.156;2022-09-21T00:51:31;5.10;;;3.43;;
4738;SDS011;2383;48.632;10.156;2022-09-21T00:55:33;5.50;;;3.53;;
4738;SDS011;2383;48.632;10.156;2022-09-21T00:59:42;4.87;;;3.73;;
4738;SDS011;2383;48.632;10.156;2022-09-21T01:03:45;8.17;;;4.00;;
4738;SDS011;2383;48.632;10.156;2022-09-21T01:07:48;4.97;;;3.60;;
4738;SDS011;2383;48.632;10.156;2022-09-21T01:28:55;6.53;;;4.07;;
4738;SDS011;2383;48.632;10.156;2022-09-21T01:37:56;6.30;;;4.03;;
4738;SDS011;2383;48.632;10.156;2022-09-21T01:42:06;9.70;;;4.50;;
4738;SDS011;2383;48.632;10.156;2022-09-21T01:46:10;5.17;;;3.73;;
4738;SDS011;2383;48.632;10.156;2022-09-21T01:50:17;3.93;;;3.07;;
4738;SDS011;2383;48.632;10.156;2022-09-21T01:54:21;5.83;;;2.90;;
4738;SDS011;2383;48.632;10.156;2022-09-21T02:02:49;5.53;;;3.50;;
4738;SDS011;2383;48.632;10.156;2022-09-21T02:07:03;4.90;;;3.33;;
4738;SDS011;2383;48.632;10.156;2022-09-21T02:11:06;4.13;;;3.27;;
4738;SDS011;2383;48.632;10.156;2022-09-21T02:15:08;4.30;;;2.83;;
4738;SDS011;2383;48.632;10.156;2022-09-21T02:19:30;6.33;;;2.83;;
4738;SDS011;2383;48.632;10.156;2022-09-21T02:23:59;3.07;;;2.73;;
4738;SDS011;2383;48.632;10.156;2022-09-21T02:28:18;3.37;;;2.83;;
4738;SDS011;2383;48.632;10.156;2022-09-21T02:46:05;3.77;;;2.90;;
4738;SDS011;2383;48.632;10.156;2022-09-21T02:50:26;5.17;;;2.87;;
4738;SDS011;2383;48.632;10.156;2022-09-21T02:54:57;3.37;;;2.83;;
4738;SDS011;2383;48.632;10.156;2022-09-21T02:59:01;3.43;;;2.60;;
4738;SDS011;2383;48.632;10.156;2022-09-21T03:03:15;4.33;;;3.00;;
4738;SDS011;2383;48.632;10.156;2022-09-21T03:07:19;2.70;;;2.40;;
4738;SDS011;2383;48.632;10.156;2022-09-21T03:11:20;6.53;;;3.43;;
4738;SDS011;2383;48.632;10.156;2022-09-21T03:15:22;4.27;;;2.43;;
4738;SDS011;2383;48.632;10.156;2022-09-21T03:19:27;2.63;;;2.30;;
4738;SDS011;2383;48.632;10.156;2022-09-21T03:23:29;5.27;;;2.33;;
4738;SDS011;2383;48.632;10.156;2022-09-21T03:27:31;4.33;;;2.40;;
4738;SDS011;2383;48.632;10.156;2022-09-21T03:31:32;5.57;;;2.30;;
4738;SDS011;2383;48.632;10.156;2022-09-21T03:35:34;3.73;;;2.30;;
4738;SDS011;2383;48.632;10.156;2022-09-21T03:39:36;3.90;;;2.20;;
4738;SDS011;2383;48.632;10.156;2022-09-21T03:43:38;3.57;;;2.40;;
4738;SDS011;2383;48.632;10.156;2022-09-21T03:47:39;4.50;;;2.40;;
4738;SDS011;2383;48.632;10.156;2022-09-21T03:51:42;3.40;;;2.50;;
4738;SDS011;2383;48.632;10.156;2022-09-21T03:55:44;6.70;;;2.13;;
4738;SDS011;2383;48.632;10.156;2022-09-21T03:59:45;2.40;;;2.20;;
4738;SDS011;2383;48.632;10.156;2022-09-21T04:03:49;4.80;;;2.67;;
4738;SDS011;2383;48.632;10.156;2022-09-21T04:07:52;5.07;;;2.30;;
4738;SDS011;2383;48.632;10.156;2022-09-21T04:11:55;3.47;;;2.53;;
4738;SDS011;2383;48.632;10.156;2022-09-21T04:15:57;2.70;;;2.40;;
4738;SDS011;2383;48.632;10.156;2022-09-21T04:19:58;2.83;;;1.90;;
4738;SDS011;2383;48.632;10.156;2022-09-21T04:24:01;2.80;;;2.20;;
4738;SDS011;2383;48.632;10.156;2022-09-21T04:28:04;4.90;;;2.30;;
4738;SDS011;2383;48.632;10.156;2022-09-21T04:32:06;6.00;;;2.80;;
4738;SDS011;2383;48.632;10.156;2022-09-21T04:36:08;8.03;;;2.40;;
4738;SDS011;2383;48.632;10.156;2022-09-21T04:40:09;2.40;;;2.20;;
4738;SDS011;2383;48.632;10.156;2022-09-21T04:44:11;3.00;;;2.13;;
4738;SDS011;2383;48.632;10.156;2022-09-21T04:48:13;4.57;;;2.30;;
4738;SDS011;2383;48.632;10.156;2022-09-21T04:52:15;5.50;;;2.60;;
4738;SDS011;2383;48.632;10.156;2022-09-21T04:56:19;2.93;;;2.10;;
4738;SDS011;2383;48.632;10.156;2022-09-21T05:00:21;6.37;;;2.23;;
4738;SDS011;2383;48.632;10.156;2022-09-21T05:04:22;3.37;;;3.03;;
4738;SDS011;2383;48.632;10.156;2022-09-21T05:08:25;6.83;;;2.20;;
4738;SDS011;2383;48.632;10.156;2022-09-21T05:12:46;2.33;;;2.13;;
4738;SDS011;2383;48.632;10.156;2022-09-21T05:16:48;4.73;;;2.40;;
4738;SDS011;2383;48.632;10.156;2022-09-21T05:20:56;4.27;;;2.33;;
4738;SDS011;2383;48.632;10.156;2022-09-21T05:24:59;5.17;;;2.30;;
4738;SDS011;2383;48.632;10.156;2022-09-21T05:29:01;3.07;;;2.30;;
4738;SDS011;2383;48.632;10.156;2022-09-21T05:33:03;5.23;;;2.33;;
4738;SDS011;2383;48.632;10.156;2022-09-21T05:37:11;3.63;;;2.50;;
4738;SDS011;2383;48.632;10.156;2022-09-21T05:41:38;3.77;;;2.63;;
4738;SDS011;2383;48.632;10.156;2022-09-21T05:45:41;7.20;;;2.80;;
4738;SDS011;2383;48.632;10.156;2022-09-21T05:54:24;5.67;;;2.57;;
4738;SDS011;2383;48.632;10.156;2022-09-21T06:07:29;8.23;;;3.17;;
4738;SDS011;2383;48.632;10.156;2022-09-21T06:11:32;5.13;;;3.63;;
4738;SDS011;2383;48.632;10.156;2022-09-21T06:15:34;13.13;;;3.17;;
4738;SDS011;2383;48.632;10.156;2022-09-21T06:19:38;4.10;;;3.17;;
4738;SDS011;2383;48.632;10.156;2022-09-21T06:23:40;6.43;;;2.83;;
4738;SDS011;2383;48.632;10.156;2022-09-21T06:27:41;4.47;;;3.03;;
4738;SDS011;2383;48.632;10.156;2022-09-21T06:31:43;4.53;;;2.50;;
4738;SDS011;2383;48.632;10.156;2022-09-21T06:39:57;4.07;;;3.00;;
4738;SDS011;2383;48.632;10.156;2022-09-21T06:43:59;6.57;;;3.20;;
4738;SDS011;2383;48.632;10.156;2022-09-21T06:48:01;6.80;;;3.10;;
4738;SDS011;2383;48.632;10.156;2022-09-21T06:52:03;6.23;;;3.33;;
4738;SDS011;2383;48.632;10.156;2022-09-21T06:56:06;9.63;;;3.70;;
4738;SDS011;2383;48.632;10.156;2022-09-21T07:00:09;6.23;;;3.13;;
4738;SDS011;2383;48.632;10.156;2022-09-21T07:04:11;6.60;;;3.43;;
4738;SDS011;2383;48.632;10.156;2022-09-21T07:08:13;4.10;;;3.00;;
4738;SDS011;2383;48.632;10.156;2022-09-21T07:12:35;4.37;;;2.93;;
4738;SDS011;2383;48.632;10.156;2022-09-21T07:16:37;8.37;;;3.97;;
4738;SDS011;2383;48.632;10.156;2022-09-21T07:20:39;7.33;;;3.50;;
4738;SDS011;2383;48.632;10.156;2022-09-21T07:24:41;8.87;;;3.57;;
4738;SDS011;2383;48.632;10.156;2022-09-21T07:28:43;6.90;;;3.60;;
4738;SDS011;2383;48.632;10.156;2022-09-21T07:32:44;6.53;;;4.00;;
4738;SDS011;2383;48.632;10.156;2022-09-21T07:36:46;7.40;;;3.17;;
4738;SDS011;2383;48.632;10.156;2022-09-21T07:40:48;4.63;;;3.83;;
4738;SDS011;2383;48.632;10.156;2022-09-21T07:44:50;6.80;;;3.63;;
4738;SDS011;2383;48.632;10.156;2022-09-21T07:49:03;6.67;;;3.70;;
4738;SDS011;2383;48.632;10.156;2022-09-21T07:53:06;9.23;;;3.87;;
4738;SDS011;2383;48.632;10.156;2022-09-21T07:57:07;8.00;;;4.23;;
4738;SDS011;2383;48.632;10.156;2022-09-21T08:01:28;8.73;;;5.43;;
4738;SDS011;2383;48.632;10.156;2022-09-21T08:05:30;9.23;;;5.57;;
4738;SDS011;2383;48.632;10.156;2022-09-21T08:09:32;8.47;;;5.33;;
4738;SDS011;2383;48.632;10.156;2022-09-21T08:13:34;5.53;;;4.37;;
4738;SDS011;2383;48.632;10.156;2022-09-21T08:17:37;8.83;;;4.70;;
4738;SDS011;2383;48.632;10.156;2022-09-21T08:21:39;6.50;;;4.70;;
4738;SDS011;2383;48.632;10.156;2022-09-21T08:25:41;9.53;;;4.77;;
4738;SDS011;2383;48.632;10.156;2022-09-21T08:29:43;5.93;;;4.40;;
4738;SDS011;2383;48.632;10.156;2022-09-21T08:33:46;8.63;;;4.67;;
4738;SDS011;2383;48.632;10.156;2022-09-21T08:37:52;8.37;;;4.57;;
4738;SDS011;2383;48.632;10.156;2022-09-21T08:42:16;5.40;;;3.70;;
4738;SDS011;2383;48.632;10.156;2022-09-21T08:46:38;8.10;;;3.90;;
4738;SDS011;2383;48.632;10.156;2022-09-21T08:50:41;5.57;;;3.80;;
4738;SDS011;2383;48.632;10.156;2022-09-21T08:58:51;7.87;;;3.93;;
4738;SDS011;2383;48.632;10.156;2022-09-21T09:11:41;5.47;;;3.03;;
4738;SDS011;2383;48.632;10.156;2022-09-21T09:19:57;8.23;;;3.20;;
4738;SDS011;2383;48.632;10.156;2022-09-21T09:24:29;5.60;;;2.60;;
4738;SDS011;2383;48.632;10.156;2022-09-21T09:28:57;3.03;;;2.17;;
4738;SDS011;2383;48.632;10.156;2022-09-21T09:33:19;3.93;;;1.73;;
4738;SDS011;2383;48.632;10.156;2022-09-21T09:37:32;2.63;;;1.80;;
4738;SDS011;2383;48.632;10.156;2022-09-21T09:54:36;2.47;;;1.60;;
4738;SDS011;2383;48.632;10.156;2022-09-21T09:58:42;3.33;;;1.90;;
4738;SDS011;2383;48.632;10.156;2022-09-21T10:02:59;2.67;;;1.70;;
4738;SDS011;2383;48.632;10.156;2022-09-21T10:07:01;3.87;;;1.40;;
4738;SDS011;2383;48.632;10.156;2022-09-21T10:11:03;2.47;;;1.33;;
4738;SDS011;2383;48.632;10.156;2022-09-21T10:15:08;3.33;;;1.40;;
4738;SDS011;2383;48.632;10.156;2022-09-21T10:19:16;4.35;;;1.50;;
4738;SDS011;2383;48.632;10.156;2022-09-21T10:23:24;3.87;;;1.70;;
4738;SDS011;2383;48.632;10.156;2022-09-21T10:27:29;2.30;;;1.57;;
4738;SDS011;2383;48.632;10.156;2022-09-21T10:31:35;3.00;;;1.90;;
4738;SDS011;2383;48.632;10.156;2022-09-21T10:35:37;3.07;;;1.83;;
4738;SDS011;2383;48.632;10.156;2022-09-21T10:39:50;2.20;;;1.90;;
4738;SDS011;2383;48.632;10.156;2022-09-21T10:43:51;1.97;;;1.73;;
4738;SDS011;2383;48.632;10.156;2022-09-21T10:47:55;2.47;;;1.60;;
4738;SDS011;2383;48.632;10.156;2022-09-21T10:52:01;3.50;;;2.20;;
4738;SDS011;2383;48.632;10.156;2022-09-21T11:04:45;2.25;;;1.60;;
4738;SDS011;2383;48.632;10.156;2022-09-21T11:17:45;2.37;;;1.20;;
4738;SDS011;2383;48.632;10.156;2022-09-21T11:22:15;1.37;;;0.97;;
4738;SDS011;2383;48.632;10.156;2022-09-21T11:26:45;1.40;;;1.30;;
4738;SDS011;2383;48.632;10.156;2022-09-21T11:35:48;1.77;;;1.10;;
4738;SDS011;2383;48.632;10.156;2022-09-21T11:40:06;1.43;;;1.33;;
4738;SDS011;2383;48.632;10.156;2022-09-21T11:44:32;1.97;;;1.40;;
4738;SDS011;2383;48.632;10.156;2022-09-21T12:18:53;1.73;;;1.63;;
4738;SDS011;2383;48.632;10.156;2022-09-21T12:23:21;3.17;;;1.70;;
4738;SDS011;2383;48.632;10.156;2022-09-21T12:27:37;2.38;;;1.30;;
4738;SDS011;2383;48.632;10.156;2022-09-21T12:36:19;1.67;;;1.25;;
4738;SDS011;2383;48.632;10.156;2022-09-21T12:44:58;1.33;;;1.10;;
4738;SDS011;2383;48.632;10.156;2022-09-21T12:49:17;2.20;;;1.10;;
4738;SDS011;2383;48.632;10.156;2022-09-21T12:53:31;1.23;;;1.10;;
4738;SDS011;2383;48.632;10.156;2022-09-21T13:02:20;1.15;;;1.02;;
4738;SDS011;2383;48.632;10.156;2022-09-21T13:10:54;2.72;;;1.40;;
4738;SDS011;2383;48.632;10.156;2022-09-21T13:15:02;1.63;;;1.20;;
4738;SDS011;2383;48.632;10.156;2022-09-21T13:19:18;1.58;;;1.02;;
4738;SDS011;2383;48.632;10.156;2022-09-21T13:23:38;1.75;;;0.95;;
4738;SDS011;2383;48.632;10.156;2022-09-21T13:36:31;1.77;;;1.15;;
4738;SDS011;2383;48.632;10.156;2022-09-21T13:40:36;3.47;;;1.20;;
4738;SDS011;2383;48.632;10.156;2022-09-21T13:44:40;2.13;;;0.98;;
4738;SDS011;2383;48.632;10.156;2022-09-21T13:48:43;1.33;;;1.20;;
4738;SDS011;2383;48.632;10.156;2022-09-21T13:52:59;2.88;;;1.30;;
4738;SDS011;2383;48.632;10.156;2022-09-21T13:57:06;3.70;;;1.50;;
4738;SDS011;2383;48.632;10.156;2022-09-21T14:01:30;2.70;;;1.17;;
4738;SDS011;2383;48.632;10.156;2022-09-21T14:05:51;1.65;;;1.27;;
4738;SDS011;2383;48.632;10.156;2022-09-21T14:10:02;2.22;;;1.30;;
4738;SDS011;2383;48.632;10.156;2022-09-21T14:14:12;2.03;;;1.38;;
4738;SDS011;2383;48.632;10.156;2022-09-21T14:18:34;1.35;;;1.00;;
4738;SDS011;2383;48.632;10.156;2022-09-21T14:22:38;3.53;;;1.20;;
4738;SDS011;2383;48.632;10.156;2022-09-21T14:30:47;2.67;;;1.08;;
4738;SDS011;2383;48.632;10.156;2022-09-21T14:34:53;2.83;;;1.17;;
4738;SDS011;2383;48.632;10.156;2022-09-21T14:39:00;2.55;;;1.20;;
4738;SDS011;2383;48.632;10.156;2022-09-21T14:43:09;1.10;;;1.00;;
4738;SDS011;2383;48.632;10.156;2022-09-21T15:13:41;3.03;;;1.20;;
4738;SDS011;2383;48.632;10.156;2022-09-21T15:17:53;1.98;;;1.10;;
4738;SDS011;2383;48.632;10.156;2022-09-21T15:22:16;3.75;;;1.10;;
4738;SDS011;2383;48.632;10.156;2022-09-21T15:26:19;1.90;;;1.27;;
4738;SDS011;2383;48.632;10.156;2022-09-21T15:30:26;2.78;;;1.42;;
4738;SDS011;2383;48.632;10.156;2022-09-21T15:34:29;1.70;;;1.02;;
4738;SDS011;2383;48.632;10.156;2022-09-21T15:38:32;1.88;;;1.10;;
4738;SDS011;2383;48.632;10.156;2022-09-21T15:42:38;1.35;;;1.20;;
4738;SDS011;2383;48.632;10.156;2022-09-21T15:46:55;1.30;;;1.20;;
4738;SDS011;2383;48.632;10.156;2022-09-21T15:55:31;1.90;;;1.50;;
4738;SDS011;2383;48.632;10.156;2022-09-21T15:59:33;2.08;;;1.48;;
4738;SDS011;2383;48.632;10.156;2022-09-21T16:03:35;1.63;;;1.38;;
4738;SDS011;2383;48.632;10.156;2022-09-21T16:07:39;1.58;;;1.15;;
4738;SDS011;2383;48.632;10.156;2022-09-21T16:11:41;1.20;;;1.10;;
4738;SDS011;2383;48.632;10.156;2022-09-21T16:15:43;1.17;;;1.00;;
4738;SDS011;2383;48.632;10.156;2022-09-21T16:24:18;2.40;;;1.20;;
4738;SDS011;2383;48.632;10.156;2022-09-21T16:28:33;1.20;;;1.10;;
4738;SDS011;2383;48.632;10.156;2022-09-21T16:36:58;1.10;;;1.00;;
4738;SDS011;2383;48.632;10.156;2022-09-21T16:41:02;11.77;;;9.35;;
4738;SDS011;2383;48.632;10.156;2022-09-21T16:45:06;11.43;;;8.32;;
4738;SDS011;2383;48.632;10.156;2022-09-21T16:49:17;2.13;;;1.65;;
4738;SDS011;2383;48.632;10.156;2022-09-21T16:53:20;1.88;;;1.50;;
4738;SDS011;2383;48.632;10.156;2022-09-21T16:57:23;2.90;;;1.20;;
4738;SDS011;2383;48.632;10.156;2022-09-21T17:01:26;2.60;;;1.83;;
4738;SDS011;2383;48.632;10.156;2022-09-21T17:05:28;2.28;;;1.58;;
4738;SDS011;2383;48.632;10.156;2022-09-21T17:09:34;5.70;;;4.23;;
4738;SDS011;2383;48.632;10.156;2022-09-21T17:13:38;1.50;;;1.40;;
4738;SDS011;2383;48.632;10.156;2022-09-21T17:17:40;4.07;;;1.50;;
4738;SDS011;2383;48.632;10.156;2022-09-21T17:21:42;1.77;;;1.55;;
4738;SDS011;2383;48.632;10.156;2022-09-21T17:25:45;1.67;;;1.20;;
4738;SDS011;2383;48.632;10.156;2022-09-21T17:29:47;2.00;;;1.70;;
4738;SDS011;2383;48.632;10.156;2022-09-21T17:33:50;3.37;;;1.87;;
4738;SDS011;2383;48.632;10.156;2022-09-21T17:37:51;6.33;;;1.70;;
4738;SDS011;2383;48.632;10.156;2022-09-21T17:50:31;1.40;;;1.30;;
4738;SDS011;2383;48.632;10.156;2022-09-21T17:54:33;3.55;;;1.40;;
4738;SDS011;2383;48.632;10.156;2022-09-21T18:03:03;3.13;;;1.60;;
4738;SDS011;2383;48.632;10.156;2022-09-21T18:07:14;2.33;;;1.40;;
4738;SDS011;2383;48.632;10.156;2022-09-21T18:24:25;8.20;;;5.00;;
4738;SDS011;2383;48.632;10.156;2022-09-21T18:28:38;7.70;;;5.60;;
4738;SDS011;2383;48.632;10.156;2022-09-21T18:33:03;6.33;;;3.93;;
4738;SDS011;2383;48.632;10.156;2022-09-21T18:45:52;12.87;;;6.87;;
4738;SDS011;2383;48.632;10.156;2022-09-21T18:50:07;12.33;;;5.77;;
4738;SDS011;2383;48.632;10.156;2022-09-21T18:54:32;10.83;;;6.40;;
4738;SDS011;2383;48.632;10.156;2022-09-21T18:58:34;9.10;;;4.80;;
4738;SDS011;2383;48.632;10.156;2022-09-21T19:02:36;5.10;;;4.23;;
4738;SDS011;2383;48.632;10.156;2022-09-21T19:24:40;6.17;;;3.37;;
4738;SDS011;2383;48.632;10.156;2022-09-21T19:33:29;5.43;;;3.00;;
4738;SDS011;2383;48.632;10.156;2022-09-21T19:37:51;4.77;;;3.10;;
4738;SDS011;2383;48.632;10.156;2022-09-21T19:50:20;5.13;;;3.03;;
4738;SDS011;2383;48.632;10.156;2022-09-21T19:54:48;5.43;;;2.67;;
4738;SDS011;2383;48.632;10.156;2022-09-21T19:59:08;5.63;;;2.70;;
4738;SDS011;2383;48.632;10.156;2022-09-21T20:03:34;5.20;;;3.40;;
4738;SDS011;2383;48.632;10.156;2022-09-21T20:07:50;3.80;;;2.80;;
4738;SDS011;2383;48.632;10.156;2022-09-21T20:12:19;3.10;;;2.53;;
4738;SDS011;2383;48.632;10.156;2022-09-21T20:20:44;8.87;;;2.97;;
4738;SDS011;2383;48.632;10.156;2022-09-21T20:24:53;4.00;;;2.77;;
4738;SDS011;2383;48.632;10.156;2022-09-21T20:28:58;8.20;;;3.73;;
4738;SDS011;2383;48.632;10.156;2022-09-21T20:33:01;7.70;;;4.10;;
4738;SDS011;2383;48.632;10.156;2022-09-21T20:37:12;9.83;;;4.73;;
4738;SDS011;2383;48.632;10.156;2022-09-21T20:41:15;13.57;;;7.00;;
4738;SDS011;2383;48.632;10.156;2022-09-21T20:45:17;12.47;;;6.83;;
4738;SDS011;2383;48.632;10.156;2022-09-21T20:49:19;7.23;;;5.00;;
4738;SDS011;2383;48.632;10.156;2022-09-21T20:53:21;9.47;;;5.30;;
4738;SDS011;2383;48.632;10.156;2022-09-21T20:57:23;14.93;;;7.70;;
4738;SDS011;2383;48.632;10.156;2022-09-21T21:01:24;17.40;;;8.97;;
4738;SDS011;2383;48.632;10.156;2022-09-21T21:05:27;21.73;;;9.77;;
4738;SDS011;2383;48.632;10.156;2022-09-21T21:09:29;20.17;;;9.73;;
4738;SDS011;2383;48.632;10.156;2022-09-21T21:13:31;36.90;;;18.20;;
4738;SDS011;2383;48.632;10.156;2022-09-21T21:17:34;11.50;;;6.10;;
4738;SDS011;2383;48.632;10.156;2022-09-21T21:21:36;8.77;;;4.67;;
4738;SDS011;2383;48.632;10.156;2022-09-21T21:25:38;16.67;;;7.30;;
4738;SDS011;2383;48.632;10.156;2022-09-21T21:29:39;16.43;;;9.00;;
4738;SDS011;2383;48.632;10.156;2022-09-21T21:33:42;3.97;;;3.13;;
4738;SDS011;2383;48.632;10.156;2022-09-21T21:37:44;6.13;;;2.80;;
4738;SDS011;2383;48.632;10.156;2022-09-21T21:41:45;7.07;;;3.53;;
4738;SDS011;2383;48.632;10.156;2022-09-21T21:45:51;7.37;;;3.83;;
4738;SDS011;2383;48.632;10.156;2022-09-21T21:49:53;4.40;;;2.80;;
4738;SDS011;2383;48.632;10.156;2022-09-21T21:53:55;3.23;;;2.67;;
4738;SDS011;2383;48.632;10.156;2022-09-21T21:57:57;5.47;;;3.13;;
4738;SDS011;2383;48.632;10.156;2022-09-21T22:01:58;5.27;;;3.50;;
4738;SDS011;2383;48.632;10.156;2022-09-21T22:06:01;6.77;;;3.17;;
4738;SDS011;2383;48.632;10.156;2022-09-21T22:10:04;5.37;;;3.30;;
4738;SDS011;2383;48.632;10.156;2022-09-21T22:14:07;5.70;;;3.80;;
4738;SDS011;2383;48.632;10.156;2022-09-21T22:18:09;4.30;;;3.70;;
4738;SDS011;2383;48.632;10.156;2022-09-21T22:22:11;5.30;;;3.80;;
4738;SDS011;2383;48.632;10.156;2022-09-21T22:26:14;5.17;;;2.97;;
4738;SDS011;2383;48.632;10.156;2022-09-21T22:30:16;4.47;;;2.90;;
4738;SDS011;2383;48.632;10.156;2022-09-21T22:34:18;7.17;;;4.13;;
4738;SDS011;2383;48.632;10.156;2022-09-21T22:38:20;4.90;;;3.60;;
4738;SDS011;2383;48.632;10.156;2022-09-21T22:42:22;5.27;;;3.87;;
4738;SDS011;2383;48.632;10.156;2022-09-21T22:46:25;6.07;;;3.37;;
4738;SDS011;2383;48.632;10.156;2022-09-21T22:50:28;4.20;;;3.00;;
4738;SDS011;2383;48.632;10.156;2022-09-21T22:54:29;5.73;;;3.40;;
4738;SDS011;2383;48.632;10.156;2022-09-21T22:58:32;4.13;;;2.90;;
4738;SDS011;2383;48.632;10.156;2022-09-21T23:02:34;4.17;;;3.23;;
4738;SDS011;2383;48.632;10.156;2022-09-21T23:06:37;2.63;;;2.40;;
4738;SDS011;2383;48.632;10.156;2022-09-21T23:10:40;3.43;;;2.70;;
4738;SDS011;2383;48.632;10.156;2022-09-21T23:14:42;5.23;;;2.80;;
4738;SDS011;2383;48.632;10.156;2022-09-21T23:18:43;3.60;;;2.30;;
4738;SDS011;2383;48.632;10.156;2022-09-21T23:22:47;5.03;;;2.37;;
4738;SDS011;2383;48.632;10.156;2022-09-21T23:26:51;5.57;;;2.30;;
4738;SDS011;2383;48.632;10.156;2022-09-21T23:30:57;3.47;;;2.60;;
4738;SDS011;2383;48.632;10.156;2022-09-21T23:35:00;3.03;;;2.20;;
4738;SDS011;2383;48.632;10.156;2022-09-21T23:39:02;3.77;;;2.57;;
4738;SDS011;2383;48.632;10.156;2022-09-21T23:43:06;2.47;;;2.27;;
4738;SDS011;2383;48.632;10.156;2022-09-21T23:47:07;3.17;;;2.50;;
4738;SDS011;2383;48.632;10.156;2022-09-21T23:51:09;5.43;;;3.40;;
4738;SDS011;2383;48.632;10.156;2022-09-21T23:55:11;5.43;;;3.00;;
4738;SDS011;2383;48.632;10.156;2022-09-21T23:59:13;3.93;;;2.83;;
